sensor_id;sensor_type;location;lat;lon;timestamp;temperature;humidity
14140;DHT22;7150;53.514;9.988;2024-01-10T00:00:37;1.20;99.90
14140;DHT22;7150;53.514;9.988;2024-01-10T00:03:02;1.10;99.90
14140;DHT22;7150;53.514;9.988;2024-01-10T00:05:28;1.20;99.90
14140;DHT22;7150;53.514;9.988;2024-01-10T00:07:54;1.10;99.90
14140;DHT22;7150;53.514;9.988;2024-01-10T00:10:19;1.10;99.90
14140;DHT22;7150;53.514;9.988;2024-01-10T00:12:47;1.10;99.90
14140;DHT22;7150;53.514;9.988;2024-01-10T00:15:12;1.10;99.90
14140;DHT22;7150;53.514;9.988;2024-01-10T00:17:39;1.00;99.90
14140;DHT22;7150;53.514;9.988;2024-01-10T00:20:06;1.00;99.90
14140;DHT22;7150;53.514;9.988;2024-01-10T00:22:32;1.00;99.90
14140;DHT22;7150;53.514;9.988;2024-01-10T00:24:57;1.00;99.90
14140;DHT22;7150;53.514;9.988;2024-01-10T00:27:23;0.90;99.90
14140;DHT22;7150;53.514;9.988;2024-01-10T00:29:49;0.90;99.90
14140;DHT22;7150;53.514;9.988;2024-01-10T00:32:16;0.90;99.90
14140;DHT22;7150;53.514;9.988;2024-01-10T00:34:41;0.90;99.90
14140;DHT22;7150;53.514;9.988;2024-01-10T00:37:07;0.90;99.90
14140;DHT22;7150;53.514;9.988;2024-01-10T00:39:32;0.90;99.90
14140;DHT22;7150;53.514;9.988;2024-01-10T00:41:58;0.80;99.90
14140;DHT22;7150;53.514;9.988;2024-01-10T00:44:23;0.80;99.90
14140;DHT22;7150;53.514;9.988;2024-01-10T00:46:49;0.70;99.90
14140;DHT22;7150;53.514;9.988;2024-01-10T00:49:14;0.60;99.90
14140;DHT22;7150;53.514;9.988;2024-01-10T00:51:40;0.60;99.90
14140;DHT22;7150;53.514;9.988;2024-01-10T00:54:05;0.60;99.90
14140;DHT22;7150;53.514;9.988;2024-01-10T00:56:31;0.60;99.90
14140;DHT22;7150;53.514;9.988;2024-01-10T00:58:56;0.50;99.90
14140;DHT22;7150;53.514;9.988;2024-01-10T01:01:23;0.50;99.90
14140;DHT22;7150;53.514;9.988;2024-01-10T01:03:50;0.50;99.90
14140;DHT22;7150;53.514;9.988;2024-01-10T01:06:15;0.50;99.90
14140;DHT22;7150;53.514;9.988;2024-01-10T01:08:41;0.40;99.90
14140;DHT22;7150;53.514;9.988;2024-01-10T01:11:06;0.50;99.90
14140;DHT22;7150;53.514;9.988;2024-01-10T01:13:32;0.40;99.90
14140;DHT22;7150;53.514;9.988;2024-01-10T01:15:57;0.50;99.90
14140;DHT22;7150;53.514;9.988;2024-01-10T01:18:23;0.40;99.90
14140;DHT22;7150;53.514;9.988;2024-01-10T01:20:48;0.40;99.90
14140;DHT22;7150;53.514;9.988;2024-01-10T01:23:15;0.30;99.90
14140;DHT22;7150;53.514;9.988;2024-01-10T01:25:41;0.30;99.90
14140;DHT22;7150;53.514;9.988;2024-01-10T01:28:06;0.30;99.90
14140;DHT22;7150;53.514;9.988;2024-01-10T01:30:32;0.40;99.90
14140;DHT22;7150;53.514;9.988;2024-01-10T01:32:57;0.40;99.90
14140;DHT22;7150;53.514;9.988;2024-01-10T01:35:23;0.40;99.90
14140;DHT22;7150;53.514;9.988;2024-01-10T01:37:49;0.50;99.90
14140;DHT22;7150;53.514;9.988;2024-01-10T01:40:15;0.50;99.90
14140;DHT22;7150;53.514;9.988;2024-01-10T01:42:40;0.50;99.90
14140;DHT22;7150;53.514;9.988;2024-01-10T01:45:06;0.50;99.90
14140;DHT22;7150;53.514;9.988;2024-01-10T01:47:32;0.50;99.90
14140;DHT22;7150;53.514;9.988;2024-01-10T01:49:57;0.40;99.90
14140;DHT22;7150;53.514;9.988;2024-01-10T01:52:24;0.50;99.90
14140;DHT22;7150;53.514;9.988;2024-01-10T01:54:50;0.50;99.90
14140;DHT22;7150;53.514;9.988;2024-01-10T01:57:15;0.50;99.90
14140;DHT22;7150;53.514;9.988;2024-01-10T01:59:41;0.50;99.90
14140;DHT22;7150;53.514;9.988;2024-01-10T02:02:07;0.50;99.90
14140;DHT22;7150;53.514;9.988;2024-01-10T02:04:32;0.40;99.90
14140;DHT22;7150;53.514;9.988;2024-01-10T02:06:58;0.40;99.90
14140;DHT22;7150;53.514;9.988;2024-01-10T02:09:25;0.40;99.90
14140;DHT22;7150;53.514;9.988;2024-01-10T02:11:50;0.30;99.90
14140;DHT22;7150;53.514;9.988;2024-01-10T02:14:16;0.40;99.90
14140;DHT22;7150;53.514;9.988;2024-01-10T02:16:42;0.30;99.90
14140;DHT22;7150;53.514;9.988;2024-01-10T02:19:21;0.30;99.90
14140;DHT22;7150;53.514;9.988;2024-01-10T02:21:46;0.20;99.90
14140;DHT22;7150;53.514;9.988;2024-01-10T02:24:12;0.20;99.90
14140;DHT22;7150;53.514;9.988;2024-01-10T02:26:39;0.20;99.90
14140;DHT22;7150;53.514;9.988;2024-01-10T02:29:04;0.10;99.90
14140;DHT22;7150;53.514;9.988;2024-01-10T02:31:30;0.10;99.90
14140;DHT22;7150;53.514;9.988;2024-01-10T02:33:55;0.10;99.90
14140;DHT22;7150;53.514;9.988;2024-01-10T02:36:21;0.10;99.90
14140;DHT22;7150;53.514;9.988;2024-01-10T02:38:46;0.10;99.90
14140;DHT22;7150;53.514;9.988;2024-01-10T02:41:13;0.10;99.90
14140;DHT22;7150;53.514;9.988;2024-01-10T02:43:38;0.00;99.90
14140;DHT22;7150;53.514;9.988;2024-01-10T02:46:04;0.10;99.90
14140;DHT22;7150;53.514;9.988;2024-01-10T02:48:29;0.10;99.90
14140;DHT22;7150;53.514;9.988;2024-01-10T02:50:55;0.10;99.90
14140;DHT22;7150;53.514;9.988;2024-01-10T02:53:21;0.10;99.90
14140;DHT22;7150;53.514;9.988;2024-01-10T02:55:47;0.10;99.90
14140;DHT22;7150;53.514;9.988;2024-01-10T02:58:14;0.10;99.90
14140;DHT22;7150;53.514;9.988;2024-01-10T03:00:39;0.10;99.90
14140;DHT22;7150;53.514;9.988;2024-01-10T03:03:05;0.10;99.90
14140;DHT22;7150;53.514;9.988;2024-01-10T03:05:30;0.00;99.90
14140;DHT22;7150;53.514;9.988;2024-01-10T03:07:55;0.10;99.90
14140;DHT22;7150;53.514;9.988;2024-01-10T03:10:21;0.00;99.90
14140;DHT22;7150;53.514;9.988;2024-01-10T03:12:46;0.00;99.90
14140;DHT22;7150;53.514;9.988;2024-01-10T03:15:12;-0.10;99.90
14140;DHT22;7150;53.514;9.988;2024-01-10T03:17:37;-0.10;99.90
14140;DHT22;7150;53.514;9.988;2024-01-10T03:20:03;-0.10;99.90
14140;DHT22;7150;53.514;9.988;2024-01-10T03:22:31;-0.20;99.90
14140;DHT22;7150;53.514;9.988;2024-01-10T03:24:57;-0.20;99.90
14140;DHT22;7150;53.514;9.988;2024-01-10T03:27:23;-0.20;99.90
14140;DHT22;7150;53.514;9.988;2024-01-10T03:29:48;-0.20;99.90
14140;DHT22;7150;53.514;9.988;2024-01-10T03:32:14;-0.20;99.90
14140;DHT22;7150;53.514;9.988;2024-01-10T03:34:41;-0.20;99.90
14140;DHT22;7150;53.514;9.988;2024-01-10T03:37:06;-0.30;99.90
14140;DHT22;7150;53.514;9.988;2024-01-10T03:39:32;-0.40;99.90
14140;DHT22;7150;53.514;9.988;2024-01-10T03:41:57;-0.40;99.90
14140;DHT22;7150;53.514;9.988;2024-01-10T03:44:23;-0.40;99.90
14140;DHT22;7150;53.514;9.988;2024-01-10T03:46:48;-0.40;99.90
14140;DHT22;7150;53.514;9.988;2024-01-10T03:49:14;-0.40;99.90
14140;DHT22;7150;53.514;9.988;2024-01-10T03:51:39;-0.40;99.90
14140;DHT22;7150;53.514;9.988;2024-01-10T03:54:05;-0.40;99.90
14140;DHT22;7150;53.514;9.988;2024-01-10T03:56:31;-0.30;99.90
14140;DHT22;7150;53.514;9.988;2024-01-10T03:58:56;-0.40;99.90
14140;DHT22;7150;53.514;9.988;2024-01-10T04:01:22;-0.30;99.90
14140;DHT22;7150;53.514;9.988;2024-01-10T04:03:51;-0.30;99.90
14140;DHT22;7150;53.514;9.988;2024-01-10T04:06:16;-0.30;99.90
14140;DHT22;7150;53.514;9.988;2024-01-10T04:08:42;-0.30;99.90
14140;DHT22;7150;53.514;9.988;2024-01-10T04:11:07;-0.40;99.90
14140;DHT22;7150;53.514;9.988;2024-01-10T04:13:34;-0.40;99.90
14140;DHT22;7150;53.514;9.988;2024-01-10T04:16:00;-0.50;99.90
14140;DHT22;7150;53.514;9.988;2024-01-10T04:18:25;-0.40;99.90
14140;DHT22;7150;53.514;9.988;2024-01-10T04:20:51;-0.40;99.90
14140;DHT22;7150;53.514;9.988;2024-01-10T04:23:17;-0.40;99.90
14140;DHT22;7150;53.514;9.988;2024-01-10T04:25:42;-0.40;99.90
14140;DHT22;7150;53.514;9.988;2024-01-10T04:28:08;-0.30;99.90
14140;DHT22;7150;53.514;9.988;2024-01-10T04:30:33;-0.30;99.90
14140;DHT22;7150;53.514;9.988;2024-01-10T04:32:58;-0.30;99.90
14140;DHT22;7150;53.514;9.988;2024-01-10T04:35:24;-0.30;99.90
14140;DHT22;7150;53.514;9.988;2024-01-10T04:37:50;-0.20;99.90
14140;DHT22;7150;53.514;9.988;2024-01-10T04:40:16;-0.20;99.90
14140;DHT22;7150;53.514;9.988;2024-01-10T04:42:41;-0.20;99.90
14140;DHT22;7150;53.514;9.988;2024-01-10T04:45:07;-0.20;99.90
14140;DHT22;7150;53.514;9.988;2024-01-10T04:47:32;-0.10;99.90
14140;DHT22;7150;53.514;9.988;2024-01-10T04:49:58;-0.20;99.90
14140;DHT22;7150;53.514;9.988;2024-01-10T04:52:23;-0.10;99.90
14140;DHT22;7150;53.514;9.988;2024-01-10T04:54:49;-0.10;99.90
14140;DHT22;7150;53.514;9.988;2024-01-10T04:57:15;0.00;99.90
14140;DHT22;7150;53.514;9.988;2024-01-10T04:59:41;0.10;99.90
14140;DHT22;7150;53.514;9.988;2024-01-10T05:02:06;0.10;99.90
14140;DHT22;7150;53.514;9.988;2024-01-10T05:04:32;0.10;99.90
14140;DHT22;7150;53.514;9.988;2024-01-10T05:06:57;0.20;99.90
14140;DHT22;7150;53.514;9.988;2024-01-10T05:09:23;0.30;99.90
14140;DHT22;7150;53.514;9.988;2024-01-10T05:11:49;0.30;99.90
14140;DHT22;7150;53.514;9.988;2024-01-10T05:14:17;0.30;99.90
14140;DHT22;7150;53.514;9.988;2024-01-10T05:16:45;0.40;99.90
14140;DHT22;7150;53.514;9.988;2024-01-10T05:19:10;0.40;99.90
14140;DHT22;7150;53.514;9.988;2024-01-10T05:21:36;0.40;99.90
14140;DHT22;7150;53.514;9.988;2024-01-10T05:24:01;0.50;99.90
14140;DHT22;7150;53.514;9.988;2024-01-10T05:26:27;0.50;99.90
14140;DHT22;7150;53.514;9.988;2024-01-10T05:28:52;0.50;99.90
14140;DHT22;7150;53.514;9.988;2024-01-10T05:31:18;0.60;99.90
14140;DHT22;7150;53.514;9.988;2024-01-10T05:33:43;0.60;99.90
14140;DHT22;7150;53.514;9.988;2024-01-10T05:36:09;0.70;99.90
14140;DHT22;7150;53.514;9.988;2024-01-10T05:38:38;0.60;99.90
14140;DHT22;7150;53.514;9.988;2024-01-10T05:41:04;0.60;99.90
14140;DHT22;7150;53.514;9.988;2024-01-10T05:43:29;0.70;99.90
14140;DHT22;7150;53.514;9.988;2024-01-10T05:45:54;0.70;99.90
14140;DHT22;7150;53.514;9.988;2024-01-10T05:48:20;0.70;99.90
14140;DHT22;7150;53.514;9.988;2024-01-10T05:50:46;0.80;99.90
14140;DHT22;7150;53.514;9.988;2024-01-10T05:53:11;0.90;99.90
14140;DHT22;7150;53.514;9.988;2024-01-10T05:55:39;0.90;99.90
14140;DHT22;7150;53.514;9.988;2024-01-10T05:58:04;0.90;99.90
14140;DHT22;7150;53.514;9.988;2024-01-10T06:00:30;0.90;99.90
14140;DHT22;7150;53.514;9.988;2024-01-10T06:02:55;1.00;99.90
14140;DHT22;7150;53.514;9.988;2024-01-10T06:05:21;1.00;99.90
14140;DHT22;7150;53.514;9.988;2024-01-10T06:07:47;1.00;99.90
14140;DHT22;7150;53.514;9.988;2024-01-10T06:10:12;1.00;99.90
14140;DHT22;7150;53.514;9.988;2024-01-10T06:12:38;1.10;99.90
14140;DHT22;7150;53.514;9.988;2024-01-10T06:15:04;1.10;99.90
14140;DHT22;7150;53.514;9.988;2024-01-10T06:17:30;1.10;99.90
14140;DHT22;7150;53.514;9.988;2024-01-10T06:19:56;1.10;99.90
14140;DHT22;7150;53.514;9.988;2024-01-10T06:22:24;1.10;99.90
14140;DHT22;7150;53.514;9.988;2024-01-10T06:24:50;1.20;99.90
14140;DHT22;7150;53.514;9.988;2024-01-10T06:27:16;1.10;99.90
14140;DHT22;7150;53.514;9.988;2024-01-10T06:29:44;1.10;99.90
14140;DHT22;7150;53.514;9.988;2024-01-10T06:32:10;1.10;99.90
14140;DHT22;7150;53.514;9.988;2024-01-10T06:34:36;1.10;99.90
14140;DHT22;7150;53.514;9.988;2024-01-10T06:37:01;1.10;99.90
14140;DHT22;7150;53.514;9.988;2024-01-10T06:39:27;1.10;99.90
14140;DHT22;7150;53.514;9.988;2024-01-10T06:41:52;1.10;99.90
14140;DHT22;7150;53.514;9.988;2024-01-10T06:44:18;1.20;99.90
14140;DHT22;7150;53.514;9.988;2024-01-10T06:46:44;1.20;99.90
14140;DHT22;7150;53.514;9.988;2024-01-10T06:49:10;1.20;99.90
14140;DHT22;7150;53.514;9.988;2024-01-10T06:51:35;1.20;99.90
14140;DHT22;7150;53.514;9.988;2024-01-10T06:54:01;1.10;99.90
14140;DHT22;7150;53.514;9.988;2024-01-10T06:56:30;1.10;99.90
14140;DHT22;7150;53.514;9.988;2024-01-10T06:58:56;1.10;99.90
14140;DHT22;7150;53.514;9.988;2024-01-10T07:01:22;1.10;99.90
14140;DHT22;7150;53.514;9.988;2024-01-10T07:03:48;1.10;99.90
14140;DHT22;7150;53.514;9.988;2024-01-10T07:06:14;1.10;99.90
14140;DHT22;7150;53.514;9.988;2024-01-10T07:08:43;1.10;99.90
14140;DHT22;7150;53.514;9.988;2024-01-10T07:11:10;1.10;99.90
14140;DHT22;7150;53.514;9.988;2024-01-10T07:13:37;1.20;99.90
14140;DHT22;7150;53.514;9.988;2024-01-10T07:16:02;1.20;99.90
14140;DHT22;7150;53.514;9.988;2024-01-10T07:18:28;1.20;99.90
14140;DHT22;7150;53.514;9.988;2024-01-10T07:20:54;1.20;99.90
14140;DHT22;7150;53.514;9.988;2024-01-10T07:23:19;1.20;99.90
14140;DHT22;7150;53.514;9.988;2024-01-10T07:25:45;1.20;99.90
14140;DHT22;7150;53.514;9.988;2024-01-10T07:28:11;1.30;99.90
14140;DHT22;7150;53.514;9.988;2024-01-10T07:30:36;1.30;99.90
14140;DHT22;7150;53.514;9.988;2024-01-10T07:33:02;1.30;99.90
14140;DHT22;7150;53.514;9.988;2024-01-10T07:35:27;1.30;99.90
14140;DHT22;7150;53.514;9.988;2024-01-10T07:37:54;1.30;99.90
14140;DHT22;7150;53.514;9.988;2024-01-10T07:40:20;1.30;99.90
14140;DHT22;7150;53.514;9.988;2024-01-10T07:42:45;1.30;99.90
14140;DHT22;7150;53.514;9.988;2024-01-10T07:45:11;1.30;99.90
14140;DHT22;7150;53.514;9.988;2024-01-10T07:47:37;1.40;99.90
14140;DHT22;7150;53.514;9.988;2024-01-10T07:50:10;1.30;99.90
14140;DHT22;7150;53.514;9.988;2024-01-10T07:52:36;1.30;99.90
14140;DHT22;7150;53.514;9.988;2024-01-10T07:55:02;1.30;99.90
14140;DHT22;7150;53.514;9.988;2024-01-10T07:57:30;1.40;99.90
14140;DHT22;7150;53.514;9.988;2024-01-10T07:59:56;1.40;99.90
14140;DHT22;7150;53.514;9.988;2024-01-10T08:02:21;1.40;99.90
14140;DHT22;7150;53.514;9.988;2024-01-10T08:04:47;1.40;99.90
14140;DHT22;7150;53.514;9.988;2024-01-10T08:07:13;1.40;99.90
14140;DHT22;7150;53.514;9.988;2024-01-10T08:09:38;1.40;99.90
14140;DHT22;7150;53.514;9.988;2024-01-10T08:12:04;1.50;99.90
14140;DHT22;7150;53.514;9.988;2024-01-10T08:14:30;1.50;99.90
14140;DHT22;7150;53.514;9.988;2024-01-10T08:16:55;1.50;99.90
14140;DHT22;7150;53.514;9.988;2024-01-10T08:19:24;1.50;99.90
14140;DHT22;7150;53.514;9.988;2024-01-10T08:21:51;1.50;99.90
14140;DHT22;7150;53.514;9.988;2024-01-10T08:24:17;1.50;99.90
14140;DHT22;7150;53.514;9.988;2024-01-10T08:26:42;1.50;99.90
14140;DHT22;7150;53.514;9.988;2024-01-10T08:29:08;1.60;99.90
14140;DHT22;7150;53.514;9.988;2024-01-10T08:31:33;1.60;99.90
14140;DHT22;7150;53.514;9.988;2024-01-10T08:34:00;1.60;99.90
14140;DHT22;7150;53.514;9.988;2024-01-10T08:36:26;1.60;99.90
14140;DHT22;7150;53.514;9.988;2024-01-10T08:38:52;1.60;99.90
14140;DHT22;7150;53.514;9.988;2024-01-10T08:41:18;1.60;99.90
14140;DHT22;7150;53.514;9.988;2024-01-10T08:43:46;1.60;99.90
14140;DHT22;7150;53.514;9.988;2024-01-10T08:46:11;1.60;99.90
14140;DHT22;7150;53.514;9.988;2024-01-10T08:48:37;1.60;99.90
14140;DHT22;7150;53.514;9.988;2024-01-10T08:51:02;1.50;99.90
14140;DHT22;7150;53.514;9.988;2024-01-10T08:53:28;1.50;99.90
14140;DHT22;7150;53.514;9.988;2024-01-10T08:55:54;1.50;99.90
14140;DHT22;7150;53.514;9.988;2024-01-10T08:58:20;1.50;99.90
14140;DHT22;7150;53.514;9.988;2024-01-10T09:00:45;1.50;99.90
14140;DHT22;7150;53.514;9.988;2024-01-10T09:03:11;1.50;99.90
14140;DHT22;7150;53.514;9.988;2024-01-10T09:05:37;1.40;99.90
14140;DHT22;7150;53.514;9.988;2024-01-10T09:08:03;1.40;99.90
14140;DHT22;7150;53.514;9.988;2024-01-10T09:10:29;1.40;99.90
14140;DHT22;7150;53.514;9.988;2024-01-10T09:12:54;1.40;99.90
14140;DHT22;7150;53.514;9.988;2024-01-10T09:15:20;1.50;99.90
14140;DHT22;7150;53.514;9.988;2024-01-10T09:17:46;1.50;99.90
14140;DHT22;7150;53.514;9.988;2024-01-10T09:20:12;1.50;99.90
14140;DHT22;7150;53.514;9.988;2024-01-10T09:22:38;1.50;99.90
14140;DHT22;7150;53.514;9.988;2024-01-10T09:25:05;1.50;99.90
14140;DHT22;7150;53.514;9.988;2024-01-10T09:27:32;1.50;99.90
14140;DHT22;7150;53.514;9.988;2024-01-10T09:29:59;1.50;99.90
14140;DHT22;7150;53.514;9.988;2024-01-10T09:32:24;1.60;99.90
14140;DHT22;7150;53.514;9.988;2024-01-10T09:34:50;1.60;99.90
14140;DHT22;7150;53.514;9.988;2024-01-10T09:37:16;1.60;99.90
14140;DHT22;7150;53.514;9.988;2024-01-10T09:39:41;1.70;99.90
14140;DHT22;7150;53.514;9.988;2024-01-10T09:42:07;1.70;99.90
14140;DHT22;7150;53.514;9.988;2024-01-10T09:44:33;1.70;99.90
14140;DHT22;7150;53.514;9.988;2024-01-10T09:46:59;1.70;99.90
14140;DHT22;7150;53.514;9.988;2024-01-10T09:49:25;1.70;99.90
14140;DHT22;7150;53.514;9.988;2024-01-10T09:51:58;1.70;99.90
14140;DHT22;7150;53.514;9.988;2024-01-10T09:54:26;1.80;99.90
14140;DHT22;7150;53.514;9.988;2024-01-10T09:56:51;1.80;99.90
14140;DHT22;7150;53.514;9.988;2024-01-10T09:59:18;1.70;99.90
14140;DHT22;7150;53.514;9.988;2024-01-10T10:01:44;1.70;99.90
14140;DHT22;7150;53.514;9.988;2024-01-10T10:04:11;1.70;99.90
14140;DHT22;7150;53.514;9.988;2024-01-10T10:06:37;1.70;99.90
14140;DHT22;7150;53.514;9.988;2024-01-10T10:09:02;1.70;99.90
14140;DHT22;7150;53.514;9.988;2024-01-10T10:11:28;1.60;99.90
14140;DHT22;7150;53.514;9.988;2024-01-10T10:13:53;1.70;99.90
14140;DHT22;7150;53.514;9.988;2024-01-10T10:16:25;1.70;99.90
14140;DHT22;7150;53.514;9.988;2024-01-10T10:18:54;1.70;99.90
14140;DHT22;7150;53.514;9.988;2024-01-10T10:21:24;1.70;99.90
14140;DHT22;7150;53.514;9.988;2024-01-10T10:23:58;1.80;99.90
14140;DHT22;7150;53.514;9.988;2024-01-10T10:26:26;1.80;99.90
14140;DHT22;7150;53.514;9.988;2024-01-10T10:28:52;1.80;99.90
14140;DHT22;7150;53.514;9.988;2024-01-10T10:31:19;1.70;99.90
14140;DHT22;7150;53.514;9.988;2024-01-10T10:33:45;1.70;99.90
14140;DHT22;7150;53.514;9.988;2024-01-10T10:36:13;1.70;99.90
14140;DHT22;7150;53.514;9.988;2024-01-10T10:38:39;1.70;99.90
14140;DHT22;7150;53.514;9.988;2024-01-10T10:41:07;1.70;99.90
14140;DHT22;7150;53.514;9.988;2024-01-10T10:43:37;1.70;99.90
14140;DHT22;7150;53.514;9.988;2024-01-10T10:46:04;1.70;99.90
14140;DHT22;7150;53.514;9.988;2024-01-10T10:48:35;1.70;99.90
14140;DHT22;7150;53.514;9.988;2024-01-10T10:51:12;1.70;99.90
14140;DHT22;7150;53.514;9.988;2024-01-10T10:53:42;1.80;99.90
14140;DHT22;7150;53.514;9.988;2024-01-10T10:56:11;1.80;99.90
14140;DHT22;7150;53.514;9.988;2024-01-10T10:58:41;1.80;99.90
14140;DHT22;7150;53.514;9.988;2024-01-10T11:01:09;1.90;99.90
14140;DHT22;7150;53.514;9.988;2024-01-10T11:03:36;1.90;99.90
14140;DHT22;7150;53.514;9.988;2024-01-10T11:06:03;1.90;99.90
14140;DHT22;7150;53.514;9.988;2024-01-10T11:08:35;1.90;99.90
14140;DHT22;7150;53.514;9.988;2024-01-10T11:11:04;1.90;99.90
14140;DHT22;7150;53.514;9.988;2024-01-10T11:17:03;1.80;99.90
14140;DHT22;7150;53.514;9.988;2024-01-10T11:20:03;1.80;99.90
14140;DHT22;7150;53.514;9.988;2024-01-10T11:25:11;1.80;99.90
14140;DHT22;7150;53.514;9.988;2024-01-10T11:27:37;1.80;99.90
14140;DHT22;7150;53.514;9.988;2024-01-10T11:30:02;1.70;99.90
14140;DHT22;7150;53.514;9.988;2024-01-10T11:32:30;1.70;99.90
14140;DHT22;7150;53.514;9.988;2024-01-10T11:34:58;1.70;99.90
14140;DHT22;7150;53.514;9.988;2024-01-10T11:37:28;1.70;99.90
14140;DHT22;7150;53.514;9.988;2024-01-10T11:40:03;1.70;99.90
14140;DHT22;7150;53.514;9.988;2024-01-10T11:42:42;1.70;99.90
14140;DHT22;7150;53.514;9.988;2024-01-10T11:45:07;1.70;99.90
14140;DHT22;7150;53.514;9.988;2024-01-10T11:47:33;1.70;99.90
14140;DHT22;7150;53.514;9.988;2024-01-10T11:50:02;1.70;99.90
14140;DHT22;7150;53.514;9.988;2024-01-10T11:52:36;1.70;99.90
14140;DHT22;7150;53.514;9.988;2024-01-10T11:55:02;1.70;99.90
14140;DHT22;7150;53.514;9.988;2024-01-10T11:57:29;1.70;99.90
14140;DHT22;7150;53.514;9.988;2024-01-10T11:59:57;1.70;99.90
14140;DHT22;7150;53.514;9.988;2024-01-10T12:02:25;1.70;99.90
14140;DHT22;7150;53.514;9.988;2024-01-10T12:04:53;1.70;99.90
14140;DHT22;7150;53.514;9.988;2024-01-10T12:07:19;1.60;99.90
14140;DHT22;7150;53.514;9.988;2024-01-10T12:09:45;1.70;99.90
14140;DHT22;7150;53.514;9.988;2024-01-10T12:12:12;1.70;99.90
14140;DHT22;7150;53.514;9.988;2024-01-10T12:14:40;1.80;99.90
14140;DHT22;7150;53.514;9.988;2024-01-10T12:17:06;1.70;99.90
14140;DHT22;7150;53.514;9.988;2024-01-10T12:19:34;1.80;99.90
14140;DHT22;7150;53.514;9.988;2024-01-10T12:22:04;1.80;99.90
14140;DHT22;7150;53.514;9.988;2024-01-10T12:24:31;1.80;99.90
14140;DHT22;7150;53.514;9.988;2024-01-10T12:26:56;1.80;99.90
14140;DHT22;7150;53.514;9.988;2024-01-10T12:29:22;1.80;99.90
14140;DHT22;7150;53.514;9.988;2024-01-10T12:31:48;1.80;99.90
14140;DHT22;7150;53.514;9.988;2024-01-10T12:34:14;1.80;99.90
14140;DHT22;7150;53.514;9.988;2024-01-10T12:36:41;1.80;99.90
14140;DHT22;7150;53.514;9.988;2024-01-10T12:39:06;1.80;99.90
14140;DHT22;7150;53.514;9.988;2024-01-10T12:41:33;1.80;99.90
14140;DHT22;7150;53.514;9.988;2024-01-10T12:44:00;1.70;99.90
14140;DHT22;7150;53.514;9.988;2024-01-10T12:46:28;1.70;99.90
14140;DHT22;7150;53.514;9.988;2024-01-10T12:48:59;1.70;99.90
14140;DHT22;7150;53.514;9.988;2024-01-10T12:51:26;1.70;99.90
14140;DHT22;7150;53.514;9.988;2024-01-10T12:53:52;1.80;99.90
14140;DHT22;7150;53.514;9.988;2024-01-10T12:56:18;1.80;99.90
14140;DHT22;7150;53.514;9.988;2024-01-10T12:58:43;1.80;99.90
14140;DHT22;7150;53.514;9.988;2024-01-10T13:01:09;1.80;99.90
14140;DHT22;7150;53.514;9.988;2024-01-10T13:03:35;1.80;99.90
14140;DHT22;7150;53.514;9.988;2024-01-10T13:06:01;1.90;99.90
14140;DHT22;7150;53.514;9.988;2024-01-10T13:08:26;1.90;99.90
14140;DHT22;7150;53.514;9.988;2024-01-10T13:10:52;1.80;99.90
14140;DHT22;7150;53.514;9.988;2024-01-10T13:13:19;1.90;99.90
14140;DHT22;7150;53.514;9.988;2024-01-10T13:15:47;1.90;99.90
14140;DHT22;7150;53.514;9.988;2024-01-10T13:18:12;1.90;99.90
14140;DHT22;7150;53.514;9.988;2024-01-10T13:20:39;1.90;99.90
14140;DHT22;7150;53.514;9.988;2024-01-10T13:23:05;1.90;99.90
14140;DHT22;7150;53.514;9.988;2024-01-10T13:25:31;1.90;99.90
14140;DHT22;7150;53.514;9.988;2024-01-10T13:27:56;1.90;99.90
14140;DHT22;7150;53.514;9.988;2024-01-10T13:30:23;1.90;99.90
14140;DHT22;7150;53.514;9.988;2024-01-10T13:32:49;1.90;99.90
14140;DHT22;7150;53.514;9.988;2024-01-10T13:35:15;1.90;99.90
14140;DHT22;7150;53.514;9.988;2024-01-10T13:37:43;1.90;99.90
14140;DHT22;7150;53.514;9.988;2024-01-10T13:40:10;2.00;99.90
14140;DHT22;7150;53.514;9.988;2024-01-10T13:42:42;2.00;99.90
14140;DHT22;7150;53.514;9.988;2024-01-10T13:45:08;2.00;99.90
14140;DHT22;7150;53.514;9.988;2024-01-10T13:47:38;2.00;99.90
14140;DHT22;7150;53.514;9.988;2024-01-10T13:50:07;2.00;99.90
14140;DHT22;7150;53.514;9.988;2024-01-10T13:52:34;2.00;99.90
14140;DHT22;7150;53.514;9.988;2024-01-10T13:55:00;2.00;99.90
14140;DHT22;7150;53.514;9.988;2024-01-10T13:57:25;2.00;99.90
14140;DHT22;7150;53.514;9.988;2024-01-10T13:59:51;2.00;99.90
14140;DHT22;7150;53.514;9.988;2024-01-10T14:02:17;2.00;99.90
14140;DHT22;7150;53.514;9.988;2024-01-10T14:04:45;2.00;99.90
14140;DHT22;7150;53.514;9.988;2024-01-10T14:07:11;2.00;99.90
14140;DHT22;7150;53.514;9.988;2024-01-10T14:09:36;2.10;99.90
14140;DHT22;7150;53.514;9.988;2024-01-10T14:12:02;2.00;99.90
14140;DHT22;7150;53.514;9.988;2024-01-10T14:14:27;2.00;99.90
14140;DHT22;7150;53.514;9.988;2024-01-10T14:16:53;2.10;99.90
14140;DHT22;7150;53.514;9.988;2024-01-10T14:19:18;2.00;99.90
14140;DHT22;7150;53.514;9.988;2024-01-10T14:21:44;2.00;99.90
14140;DHT22;7150;53.514;9.988;2024-01-10T14:24:11;2.00;99.90
14140;DHT22;7150;53.514;9.988;2024-01-10T14:26:36;2.00;99.90
14140;DHT22;7150;53.514;9.988;2024-01-10T14:29:02;2.00;99.90
14140;DHT22;7150;53.514;9.988;2024-01-10T14:31:28;2.00;99.90
14140;DHT22;7150;53.514;9.988;2024-01-10T14:33:53;2.00;99.90
14140;DHT22;7150;53.514;9.988;2024-01-10T14:36:19;1.90;99.90
14140;DHT22;7150;53.514;9.988;2024-01-10T14:38:45;1.90;99.90
14140;DHT22;7150;53.514;9.988;2024-01-10T14:41:10;2.00;99.90
14140;DHT22;7150;53.514;9.988;2024-01-10T14:43:36;2.00;99.90
14140;DHT22;7150;53.514;9.988;2024-01-10T14:46:03;2.00;99.90
14140;DHT22;7150;53.514;9.988;2024-01-10T14:48:29;1.90;99.90
14140;DHT22;7150;53.514;9.988;2024-01-10T14:50:54;1.90;99.90
14140;DHT22;7150;53.514;9.988;2024-01-10T14:53:20;1.90;99.90
14140;DHT22;7150;53.514;9.988;2024-01-10T14:55:45;1.90;99.90
14140;DHT22;7150;53.514;9.988;2024-01-10T14:58:11;2.00;99.90
14140;DHT22;7150;53.514;9.988;2024-01-10T15:00:36;2.00;99.90
14140;DHT22;7150;53.514;9.988;2024-01-10T15:03:02;1.90;99.90
14140;DHT22;7150;53.514;9.988;2024-01-10T15:05:29;2.00;99.90
14140;DHT22;7150;53.514;9.988;2024-01-10T15:07:55;2.10;99.90
14140;DHT22;7150;53.514;9.988;2024-01-10T15:10:20;2.00;99.90
14140;DHT22;7150;53.514;9.988;2024-01-10T15:12:46;2.10;99.90
14140;DHT22;7150;53.514;9.988;2024-01-10T15:15:11;2.00;99.90
14140;DHT22;7150;53.514;9.988;2024-01-10T15:17:37;2.10;99.90
14140;DHT22;7150;53.514;9.988;2024-01-10T15:20:03;2.10;99.90
14140;DHT22;7150;53.514;9.988;2024-01-10T15:22:29;2.00;99.90
14140;DHT22;7150;53.514;9.988;2024-01-10T15:24:54;2.00;99.90
14140;DHT22;7150;53.514;9.988;2024-01-10T15:27:20;2.00;99.90
14140;DHT22;7150;53.514;9.988;2024-01-10T15:29:45;2.00;99.90
14140;DHT22;7150;53.514;9.988;2024-01-10T15:32:11;2.00;99.90
14140;DHT22;7150;53.514;9.988;2024-01-10T15:34:37;2.00;99.90
14140;DHT22;7150;53.514;9.988;2024-01-10T15:37:03;2.00;99.90
14140;DHT22;7150;53.514;9.988;2024-01-10T15:39:29;2.00;99.90
14140;DHT22;7150;53.514;9.988;2024-01-10T15:41:55;1.90;99.90
14140;DHT22;7150;53.514;9.988;2024-01-10T15:44:21;2.00;99.90
14140;DHT22;7150;53.514;9.988;2024-01-10T15:46:46;2.00;99.90
14140;DHT22;7150;53.514;9.988;2024-01-10T15:49:12;2.00;99.90
14140;DHT22;7150;53.514;9.988;2024-01-10T15:51:41;2.00;99.90
14140;DHT22;7150;53.514;9.988;2024-01-10T15:54:06;2.00;99.90
14140;DHT22;7150;53.514;9.988;2024-01-10T15:56:32;2.00;99.90
14140;DHT22;7150;53.514;9.988;2024-01-10T15:58:59;2.10;99.90